Time;durP1;ratioP1;P1;durP2;ratioP2;P2;SDS_P1;SDS_P2;PMS_P1;PMS_P2;Temp;Humidity;BMP_temperature;BMP_pressure;BME280_temperature;BME280_humidity;BME280_pressure;Samples;Min_cycle;Max_cycle;Signal;HPM_P1;HPM_P2
2022/01/04 00:01:26;;;;;;;3.90;2.10;;;;;;;12.81;73.08;96094.69;5994428;23;20197;-82
2022/01/04 00:03:52;;;;;;;3.60;2.42;;;;;;;12.83;72.28;96097.78;5970362;23;20186;-81
2022/01/04 00:06:17;;;;;;;2.45;2.10;;;;;;;12.91;72.63;96085.94;5993410;23;20574;-82
2022/01/04 00:08:42;;;;;;;3.17;2.10;;;;;;;12.94;72.25;96077.53;6027401;23;20080;-83
2022/01/04 00:11:15;;;;;;;3.78;2.80;;;;;;;12.71;72.76;96066.91;5995080;23;20293;-82
2022/01/04 00:13:41;;;;;;;4.18;2.42;;;;;;;12.70;72.51;96064.56;6027944;23;20163;-82
2022/01/04 00:16:07;;;;;;;4.68;2.90;;;;;;;12.70;72.73;96054.13;5994359;23;20355;-83
2022/01/04 00:18:34;;;;;;;3.30;2.85;;;;;;;12.67;73.43;96054.69;5994951;23;20158;-82
2022/01/04 00:20:59;;;;;;;4.65;2.70;;;;;;;12.96;72.43;96056.34;6003710;23;20256;-83
2022/01/04 00:23:25;;;;;;;3.33;2.60;;;;;;;12.74;72.91;96044.66;5994294;23;20241;-83
2022/01/04 00:25:50;;;;;;;3.08;2.50;;;;;;;12.98;72.19;96052.38;6028124;23;20147;-82
2022/01/04 00:28:16;;;;;;;3.80;2.85;;;;;;;12.90;72.23;96039.94;6018989;23;20613;-82
2022/01/04 00:30:41;;;;;;;5.45;3.67;;;;;;;13.15;71.68;96041.38;6028376;23;20634;-82
2022/01/04 00:33:10;;;;;;;3.50;2.67;;;;;;;12.86;72.25;96010.25;6027842;23;20166;-82
2022/01/04 00:35:36;;;;;;;4.68;2.60;;;;;;;12.89;71.84;96022.75;6028229;23;20709;-81
2022/01/04 00:38:01;;;;;;;3.20;2.58;;;;;;;12.95;71.45;96010.34;6004528;23;20075;-83
2022/01/04 00:40:27;;;;;;;4.85;2.80;;;;;;;12.79;72.59;96000.16;6028638;23;20167;-82
2022/01/04 00:42:58;;;;;;;4.22;2.60;;;;;;;12.98;71.83;96009.78;5995281;23;20657;-81
2022/01/04 00:45:26;;;;;;;5.05;2.85;;;;;;;13.02;71.65;96011.56;6004226;23;20435;-82
2022/01/04 00:50:21;;;;;;;3.38;2.42;;;;;;;12.72;72.05;95989.31;5995082;23;20203;-82
2022/01/04 00:52:47;;;;;;;3.25;2.53;;;;;;;12.80;72.62;95991.28;5993538;23;20538;-83
2022/01/04 00:55:12;;;;;;;4.93;2.80;;;;;;;12.92;71.76;95977.75;5980688;23;20210;-81
2022/01/04 00:57:38;;;;;;;4.53;3.50;;;;;;;12.63;73.00;95968.31;6023842;23;20657;-83
2022/01/04 01:00:05;;;;;;;3.58;2.92;;;;;;;12.77;71.93;95973.56;6028735;23;20294;-82
2022/01/04 01:02:30;;;;;;;3.13;2.80;;;;;;;12.65;72.81;95978.47;6017919;23;20181;-81
2022/01/04 01:04:55;;;;;;;6.15;3.05;;;;;;;12.63;72.49;95957.88;6027722;23;20261;-82
2022/01/04 01:07:21;;;;;;;4.95;3.08;;;;;;;13.01;71.56;95954.34;6027234;23;20538;-82
2022/01/04 01:10:02;;;;;;;5.32;3.05;;;;;;;12.85;71.92;95954.63;6028186;23;20147;-81
2022/01/04 01:12:28;;;;;;;4.47;3.50;;;;;;;12.59;73.38;95943.81;5998149;23;20518;-83
2022/01/04 01:14:54;;;;;;;6.80;3.60;;;;;;;12.90;72.33;95923.19;5989568;23;20155;-81
2022/01/04 01:17:19;;;;;;;4.68;3.60;;;;;;;12.93;72.04;95921.81;5995265;23;20061;-81
2022/01/04 01:19:44;;;;;;;4.43;3.30;;;;;;;12.84;71.53;95926.94;6029102;23;20186;-81
2022/01/04 01:22:10;;;;;;;5.38;3.13;;;;;;;12.70;72.58;95926.16;5995823;23;20623;-80
2022/01/04 01:24:35;;;;;;;6.22;3.65;;;;;;;12.77;71.73;95910.88;6027262;23;20239;-80
2022/01/04 01:27:00;;;;;;;6.00;3.42;;;;;;;12.65;72.49;95907.97;6028741;23;20186;-85
2022/01/04 01:29:28;;;;;;;5.22;3.75;;;;;;;12.66;72.45;95914.72;6019048;23;20189;-82
2022/01/04 01:31:53;;;;;;;5.53;3.25;;;;;;;12.56;72.85;95913.09;5995117;23;20288;-83
2022/01/04 01:34:19;;;;;;;6.00;3.03;;;;;;;12.75;72.00;95902.56;6027767;23;20658;-81
2022/01/04 01:36:44;;;;;;;4.45;3.10;;;;;;;12.97;71.44;95903.72;6053102;23;20204;-82
2022/01/04 01:39:09;;;;;;;5.07;3.50;;;;;;;12.77;72.16;95902.28;6028572;23;20590;-81
2022/01/04 01:41:35;;;;;;;5.95;3.72;;;;;;;12.70;71.90;95897.44;6029156;23;20202;-81
2022/01/04 01:44:00;;;;;;;5.70;3.67;;;;;;;12.92;71.30;95888.94;6029440;23;20308;-81
2022/01/04 01:46:25;;;;;;;5.10;3.47;;;;;;;12.84;71.39;95890.38;5994934;23;20229;-81
2022/01/04 01:48:51;;;;;;;4.95;3.70;;;;;;;13.02;70.45;95895.78;5994845;23;20692;-82
2022/01/04 01:51:17;;;;;;;5.65;3.55;;;;;;;12.97;70.98;95886.22;6028517;23;20261;-82
2022/01/04 01:53:45;;;;;;;4.47;3.30;;;;;;;13.00;70.69;95877.78;6023474;23;20257;-82
2022/01/04 01:56:11;;;;;;;4.88;3.53;;;;;;;12.74;71.69;95877.50;6019590;23;20225;-80
2022/01/04 01:58:36;;;;;;;5.32;3.40;;;;;;;12.52;72.18;95871.09;6014355;23;20678;-81
2022/01/04 02:01:02;;;;;;;5.30;3.38;;;;;;;12.79;71.74;95871.41;5992009;23;20185;-82
2022/01/04 02:03:27;;;;;;;5.35;3.80;;;;;;;12.60;71.89;95854.00;5991593;23;20178;-82
2022/01/04 02:05:53;;;;;;;4.70;3.33;;;;;;;12.85;70.90;95855.38;6026665;23;20196;-82
2022/01/04 02:08:19;;;;;;;7.07;3.85;;;;;;;12.50;72.03;95864.63;6027781;23;20197;-81
2022/01/04 02:10:45;;;;;;;6.20;3.78;;;;;;;12.67;71.57;95854.38;6004880;23;20623;-83
2022/01/04 02:13:10;;;;;;;4.75;3.15;;;;;;;12.91;70.88;95843.72;6052122;23;20593;-81
2022/01/04 02:15:35;;;;;;;7.82;3.40;;;;;;;12.61;71.94;95841.72;6029018;23;20328;-80
2022/01/04 02:18:01;;;;;;;5.82;3.28;;;;;;;12.61;71.77;95833.88;5995627;23;20902;-81
2022/01/04 02:20:27;;;;;;;5.43;3.33;;;;;;;12.85;71.55;95818.78;6019234;23;20271;-81
2022/01/04 02:22:54;;;;;;;3.90;2.85;;;;;;;12.67;71.30;95809.22;6028709;23;20197;-79
2022/01/04 02:25:19;;;;;;;3.85;2.92;;;;;;;12.58;71.92;95813.56;6037550;23;20762;-82
2022/01/04 02:27:45;;;;;;;5.43;3.30;;;;;;;12.32;72.79;95803.59;6043698;23;20014;-82
2022/01/04 02:30:14;;;;;;;4.10;3.25;;;;;;;12.67;71.47;95801.38;6042804;23;20387;-81
2022/01/04 02:32:41;;;;;;;4.07;3.17;;;;;;;12.71;71.45;95797.13;6035153;23;20260;-81
2022/01/04 02:35:07;;;;;;;4.47;3.28;;;;;;;12.62;71.73;95783.22;5972466;23;20178;-80
2022/01/04 02:37:33;;;;;;;4.80;3.25;;;;;;;12.79;71.12;95783.38;6028577;23;20147;-81
2022/01/04 02:39:58;;;;;;;4.40;3.17;;;;;;;12.49;71.77;95779.53;6029995;23;20181;-81
2022/01/04 02:42:24;;;;;;;4.15;3.33;;;;;;;12.43;72.31;95773.63;6005841;23;20156;-81
2022/01/04 02:44:50;;;;;;;6.03;3.47;;;;;;;12.37;72.38;95772.16;5995744;23;20221;-82
2022/01/04 02:47:15;;;;;;;6.20;3.20;;;;;;;12.17;72.67;95778.56;6030031;23;20202;-80
2022/01/04 02:49:41;;;;;;;4.07;3.30;;;;;;;12.61;71.74;95776.44;6030056;23;20226;-81
2022/01/04 02:52:07;;;;;;;4.18;3.15;;;;;;;12.64;70.82;95760.94;6029287;23;20178;-82
2022/01/04 02:54:32;;;;;;;6.50;3.95;;;;;;;12.41;72.55;95762.72;6022427;23;20166;-81
2022/01/04 02:56:58;;;;;;;4.53;3.22;;;;;;;12.33;72.07;95760.78;6029690;23;20337;-81
2022/01/04 02:59:23;;;;;;;4.80;3.25;;;;;;;12.53;71.71;95757.00;6028199;23;20182;-81
2022/01/04 03:01:49;;;;;;;4.15;2.83;;;;;;;12.42;71.50;95743.38;6029702;23;20182;-83
2022/01/04 03:04:14;;;;;;;4.45;3.10;;;;;;;12.56;71.86;95751.22;5995892;23;20185;-81
2022/01/04 03:06:40;;;;;;;3.50;2.95;;;;;;;12.66;70.89;95745.00;6028768;23;20225;-81
2022/01/04 03:09:06;;;;;;;4.35;3.15;;;;;;;12.55;71.57;95744.44;6019443;23;20387;-82
2022/01/04 03:11:32;;;;;;;3.50;2.92;;;;;;;12.29;72.17;95737.09;6029028;23;20147;-80
2022/01/04 03:13:58;;;;;;;4.57;3.00;;;;;;;12.34;72.19;95736.22;5994293;23;20477;-82
2022/01/04 03:16:23;;;;;;;3.60;2.88;;;;;;;12.46;72.08;95712.25;5994856;23;20228;-80
2022/01/04 03:21:20;;;;;;;4.82;2.50;;;;;;;12.20;72.71;95712.75;6028897;23;20589;-81
2022/01/04 03:23:45;;;;;;;3.17;2.60;;;;;;;12.54;71.82;95703.72;5994599;23;20161;-81
2022/01/04 03:26:11;;;;;;;4.05;2.42;;;;;;;12.61;71.43;95695.47;6028603;23;20258;-83
2022/01/04 03:28:40;;;;;;;4.07;2.30;;;;;;;12.53;71.21;95691.75;6004253;23;20284;-81
2022/01/04 03:31:06;;;;;;;3.03;2.65;;;;;;;12.64;70.55;95684.47;5995075;23;20151;-82
2022/01/04 03:33:31;;;;;;;2.63;2.42;;;;;;;12.11;72.89;95677.94;6028542;23;20220;-82
2022/01/04 03:35:56;;;;;;;3.78;2.53;;;;;;;12.37;72.01;95678.22;6028705;23;20593;-82
2022/01/04 03:38:22;;;;;;;6.10;2.55;;;;;;;12.34;71.96;95669.13;6029316;23;20193;-80
2022/01/04 03:40:48;;;;;;;4.50;2.10;;;;;;;12.68;70.89;95669.75;6027974;23;20170;-83
2022/01/04 03:43:13;;;;;;;2.58;1.92;;;;;;;12.50;71.27;95661.75;5994755;23;20182;-83
2022/01/04 03:45:39;;;;;;;4.22;2.33;;;;;;;12.42;71.94;95670.28;6028711;23;20264;-83
2022/01/04 03:48:04;;;;;;;3.13;2.17;;;;;;;12.37;72.31;95652.09;6018679;23;20170;-84
2022/01/04 03:50:30;;;;;;;2.65;2.20;;;;;;;12.27;72.47;95647.88;5995202;23;20237;-84
2022/01/04 03:52:55;;;;;;;4.30;2.20;;;;;;;12.23;72.20;95643.53;6027374;23;20181;-81
2022/01/04 03:55:21;;;;;;;3.08;2.30;;;;;;;12.41;71.96;95645.25;5994698;23;20198;-83
2022/01/04 03:57:46;;;;;;;2.20;1.55;;;;;;;12.57;70.96;95630.03;6028708;23;20185;-83
2022/01/04 04:00:12;;;;;;;2.97;1.80;;;;;;;12.55;70.99;95635.53;6027799;23;20185;-80
2022/01/04 04:02:38;;;;;;;3.47;2.00;;;;;;;12.62;70.87;95626.53;6027767;23;20586;-82
2022/01/04 04:05:05;;;;;;;2.50;1.90;;;;;;;12.68;70.70;95630.56;6027689;23;20256;-81
2022/01/04 04:07:30;;;;;;;2.08;1.70;;;;;;;12.63;70.90;95604.56;6028341;23;20143;-83
2022/01/04 04:09:55;;;;;;;3.25;2.13;;;;;;;12.59;71.01;95611.47;5995007;23;20580;-82
2022/01/04 04:12:23;;;;;;;2.60;1.70;;;;;;;12.66;70.76;95606.59;6027319;23;20126;-81
2022/01/04 04:14:48;;;;;;;1.90;1.40;;;;;;;12.61;71.35;95598.88;6028377;23;20182;-83
2022/01/04 04:17:14;;;;;;;3.30;1.52;;;;;;;12.33;72.12;95588.53;5994625;23;20264;-83
2022/01/04 04:19:39;;;;;;;2.28;1.45;;;;;;;12.61;71.09;95598.88;6027884;23;20139;-84
2022/01/04 04:22:05;;;;;;;2.53;1.80;;;;;;;12.28;72.39;95586.03;5994416;23;20535;-83
2022/01/04 04:24:30;;;;;;;2.58;1.30;;;;;;;12.34;72.20;95579.66;5994596;23;20257;-80
2022/01/04 04:26:55;;;;;;;2.72;1.23;;;;;;;12.40;72.17;95575.84;5994434;23;20525;-81
2022/01/04 04:29:21;;;;;;;1.88;1.42;;;;;;;12.57;70.97;95559.53;5994067;23;20177;-81
2022/01/04 04:31:46;;;;;;;2.38;1.35;;;;;;;12.60;71.35;95548.50;5994852;23;20304;-81
2022/01/04 04:34:11;;;;;;;1.60;1.20;;;;;;;12.50;71.89;95556.56;6027600;23;20229;-82
2022/01/04 04:36:37;;;;;;;1.20;1.10;;;;;;;12.65;71.33;95545.00;5993884;23;20166;-81
2022/01/04 04:39:03;;;;;;;2.35;1.00;;;;;;;12.31;72.52;95541.06;6004475;23;20144;-83
2022/01/04 04:41:29;;;;;;;1.23;1.08;;;;;;;12.34;72.25;95535.28;6028714;23;20613;-82
2022/01/04 04:43:54;;;;;;;1.88;1.30;;;;;;;12.50;72.11;95526.00;6028008;23;20178;-82
2022/01/04 04:46:21;;;;;;;1.88;1.05;;;;;;;12.61;71.33;95528.38;6028538;23;20170;-84
2022/01/04 04:48:46;;;;;;;1.20;1.00;;;;;;;12.33;72.41;95520.66;5996786;23;20147;-83
2022/01/04 04:51:12;;;;;;;3.28;1.15;;;;;;;12.32;72.95;95521.72;6030196;23;20276;-82
2022/01/04 04:53:37;;;;;;;1.38;1.08;;;;;;;12.21;73.38;95515.22;5995612;23;20251;-80
2022/01/04 04:56:03;;;;;;;1.20;1.10;;;;;;;12.51;71.98;95511.13;6031838;23;20187;-80
2022/01/04 04:58:29;;;;;;;1.10;0.90;;;;;;;12.29;72.82;95519.72;6032265;23;20262;-82
2022/01/04 05:00:54;;;;;;;1.13;1.00;;;;;;;12.07;73.80;95508.19;5982089;23;20659;-83
2022/01/04 05:03:20;;;;;;;1.33;0.77;;;;;;;12.38;73.13;95515.34;5971884;23;20121;-83
2022/01/04 05:05:45;;;;;;;1.38;0.90;;;;;;;12.18;73.50;95504.31;6006153;23;20594;-83
2022/01/04 05:08:10;;;;;;;0.95;0.80;;;;;;;12.24;73.37;95506.78;6005664;23;20178;-81
2022/01/04 05:10:36;;;;;;;1.30;0.90;;;;;;;12.72;71.89;95500.97;6005504;23;20195;-82
2022/01/04 05:13:01;;;;;;;1.23;0.82;;;;;;;12.48;72.91;95496.06;5981576;23;20195;-82
2022/01/04 05:15:26;;;;;;;1.85;1.35;;;;;;;12.43;72.72;95494.34;5972787;23;20141;-82
2022/01/04 05:17:52;;;;;;;0.80;0.80;;;;;;;12.52;72.09;95491.78;6005353;23;20179;-83
2022/01/04 05:20:17;;;;;;;2.33;0.85;;;;;;;12.69;72.12;95483.28;5981625;23;20231;-82
2022/01/04 05:22:43;;;;;;;0.65;0.60;;;;;;;12.58;72.27;95482.78;5947991;23;20610;-81
2022/01/04 05:25:10;;;;;;;0.82;0.60;;;;;;;12.67;71.78;95464.53;5995458;23;20307;-81
2022/01/04 05:27:36;;;;;;;0.95;0.85;;;;;;;12.59;72.13;95470.47;6005270;23;20302;-84
2022/01/04 05:30:02;;;;;;;0.73;0.65;;;;;;;12.47;72.41;95456.13;6005276;23;20250;-80
2022/01/04 05:32:28;;;;;;;1.20;0.60;;;;;;;12.48;72.72;95455.06;6005000;23;20168;-83
2022/01/04 05:34:53;;;;;;;1.20;0.63;;;;;;;12.46;73.05;95451.97;6005554;23;20199;-80
2022/01/04 05:37:18;;;;;;;1.83;1.00;;;;;;;12.41;73.23;95444.28;5981427;23;20106;-82
2022/01/04 05:39:44;;;;;;;1.05;0.75;;;;;;;12.41;73.51;95436.44;5981354;23;20593;-81
2022/01/04 05:42:09;;;;;;;1.05;0.63;;;;;;;11.96;74.79;95433.81;6005342;23;20604;-83
2022/01/04 05:44:36;;;;;;;1.55;0.70;;;;;;;12.34;73.54;95429.03;5971865;23;20511;-80
2022/01/04 05:47:02;;;;;;;0.65;0.60;;;;;;;12.29;73.94;95423.94;5972209;23;20255;-83
2022/01/04 05:49:27;;;;;;;1.65;0.60;;;;;;;12.16;73.99;95409.13;6005338;23;20309;-81
2022/01/04 05:51:52;;;;;;;1.48;0.70;;;;;;;12.13;74.52;95422.75;6004495;23;20227;-82
2022/01/04 05:54:18;;;;;;;1.00;0.75;;;;;;;12.50;73.24;95418.97;5948504;23;20212;-83
2022/01/04 05:56:43;;;;;;;1.83;0.82;;;;;;;12.28;74.05;95424.22;6004536;23;20262;-81
2022/01/04 05:59:08;;;;;;;0.82;0.82;;;;;;;12.48;73.56;95418.50;5980524;23;20592;-80
2022/01/04 06:01:34;;;;;;;1.40;1.23;;;;;;;12.46;73.84;95406.84;5980417;23;20270;-82
2022/01/04 06:03:59;;;;;;;0.95;0.85;;;;;;;12.54;72.79;95411.31;5970181;23;20203;-83
2022/01/04 06:06:25;;;;;;;0.88;0.80;;;;;;;12.21;74.36;95405.63;5947675;23;20087;-83
2022/01/04 06:08:51;;;;;;;1.10;0.77;;;;;;;12.13;74.35;95402.66;5947446;23;20618;-83
2022/01/04 06:11:54;;;;;;;1.10;1.00;;;;;;;12.53;73.58;95401.97;5994339;23;20347;-82
2022/01/04 06:17:01;;;;;;;2.15;0.95;;;;;;;12.46;73.75;95389.34;6008037;23;20179;-82
2022/01/04 06:19:26;;;;;;;1.90;0.93;;;;;;;12.48;73.63;95396.88;5971587;23;20157;-83
2022/01/04 06:21:52;;;;;;;0.88;0.75;;;;;;;12.50;73.27;95400.72;6003513;23;20352;-83
2022/01/04 06:24:17;;;;;;;1.60;0.98;;;;;;;12.34;74.04;95384.66;5980675;23;20303;-81
2022/01/04 06:26:43;;;;;;;2.20;1.20;;;;;;;12.31;73.75;95394.94;5980238;23;20223;-85
2022/01/04 06:29:10;;;;;;;1.02;0.90;;;;;;;12.21;74.32;95388.13;6003859;23;20160;-80
2022/01/04 06:31:36;;;;;;;1.58;0.95;;;;;;;12.43;73.70;95386.56;5947187;23;20229;-81
2022/01/04 06:34:01;;;;;;;1.13;1.00;;;;;;;12.32;73.88;95384.19;5947645;23;20211;-80
2022/01/04 06:36:26;;;;;;;1.50;1.00;;;;;;;12.65;73.17;95381.28;5971601;23;20292;-83
2022/01/04 06:38:52;;;;;;;1.35;0.90;;;;;;;12.61;73.15;95379.56;5947367;23;20590;-82
2022/01/04 06:41:17;;;;;;;1.30;1.20;;;;;;;12.35;74.19;95370.56;5995002;23;20195;-82
2022/01/04 06:43:42;;;;;;;1.30;1.10;;;;;;;12.75;72.56;95359.34;5970558;23;20278;-80
2022/01/04 06:46:11;;;;;;;1.10;1.00;;;;;;;12.92;71.78;95375.06;6004334;23;20310;-82
2022/01/04 06:48:38;;;;;;;1.00;0.90;;;;;;;12.87;72.37;95361.41;5981356;23;20167;-83
2022/01/04 06:51:04;;;;;;;1.00;0.90;;;;;;;12.71;72.69;95363.63;6005052;23;20181;-82
2022/01/04 06:53:29;;;;;;;1.50;1.13;;;;;;;12.60;72.68;95349.31;5977867;23;20604;-82
2022/01/04 06:55:54;;;;;;;1.85;1.00;;;;;;;12.60;73.38;95357.16;5980618;23;20579;-81
2022/01/04 06:58:20;;;;;;;1.52;0.90;;;;;;;12.69;72.67;95339.66;5980293;23;20636;-82
2022/01/04 07:00:45;;;;;;;1.20;0.88;;;;;;;12.66;72.54;95335.84;5970200;23;20416;-83
2022/01/04 07:03:11;;;;;;;1.30;0.90;;;;;;;12.62;73.12;95336.72;5971187;23;20171;-83
2022/01/04 07:05:36;;;;;;;2.00;1.10;;;;;;;12.66;72.92;95327.22;5947467;23;20207;-80
2022/01/04 07:08:03;;;;;;;2.33;1.27;;;;;;;12.87;72.03;95330.81;5970655;23;20270;-81
2022/01/04 07:10:28;;;;;;;1.65;0.70;;;;;;;12.55;73.23;95330.09;5970750;23;20651;-80
2022/01/04 07:12:53;;;;;;;0.90;0.50;;;;;;;12.43;73.72;95329.91;5970739;23;20272;-82
2022/01/04 07:15:19;;;;;;;0.90;0.65;;;;;;;12.81;72.01;95324.19;6003868;23;20206;-82
2022/01/04 07:17:44;;;;;;;1.70;1.00;;;;;;;12.54;73.74;95333.78;6004389;23;20160;-83
2022/01/04 07:20:10;;;;;;;1.63;0.70;;;;;;;12.67;72.51;95331.38;5980011;23;20198;-81
2022/01/04 07:22:36;;;;;;;2.25;1.02;;;;;;;12.21;74.37;95315.06;6003805;23;20183;-82
2022/01/04 07:25:03;;;;;;;1.52;1.20;;;;;;;12.49;73.35;95336.53;5947114;23;20148;-84
2022/01/04 07:27:28;;;;;;;2.92;1.00;;;;;;;12.63;72.93;95326.00;5971098;23;20187;-82
2022/01/04 07:29:53;;;;;;;1.80;0.90;;;;;;;12.73;73.02;95323.09;5970331;23;20156;-81
2022/01/04 07:32:19;;;;;;;0.93;0.70;;;;;;;12.45;73.42;95312.09;6003479;23;20195;-83
2022/01/04 07:34:44;;;;;;;1.85;0.82;;;;;;;12.72;73.14;95307.72;5980140;23;20257;-84
2022/01/04 07:37:10;;;;;;;1.10;0.98;;;;;;;12.80;72.76;95311.41;5980357;23;20240;-84
2022/01/04 07:39:35;;;;;;;1.48;0.85;;;;;;;12.55;73.71;95304.00;5980517;23;20187;-80
2022/01/04 07:42:02;;;;;;;1.88;1.30;;;;;;;12.59;73.37;95303.38;5979858;23;20380;-81
2022/01/04 07:44:27;;;;;;;2.08;1.00;;;;;;;12.52;73.67;95304.59;5971201;23;20235;-83
2022/01/04 07:46:53;;;;;;;1.45;0.90;;;;;;;12.25;74.68;95291.75;6004169;23;20580;-80
2022/01/04 07:49:19;;;;;;;1.88;1.00;;;;;;;12.16;75.05;95289.88;5970835;23;20241;-79
2022/01/04 07:51:44;;;;;;;1.48;1.00;;;;;;;12.58;73.80;95294.78;6027504;23;20579;-81
2022/01/04 07:54:10;;;;;;;1.17;1.00;;;;;;;12.37;74.44;95294.56;5976387;23;20260;-80
2022/01/04 07:56:35;;;;;;;1.63;0.73;;;;;;;12.67;73.67;95290.34;5993657;23;20579;-80
2022/01/04 07:59:00;;;;;;;1.23;0.65;;;;;;;12.55;73.86;95282.34;6028129;23;20460;-82
2022/01/04 08:01:28;;;;;;;2.08;0.68;;;;;;;12.58;73.71;95273.91;6028422;23;20181;-83
2022/01/04 08:03:53;;;;;;;2.28;0.80;;;;;;;12.70;73.54;95273.31;6028074;23;20161;-81
2022/01/04 08:06:18;;;;;;;1.10;0.85;;;;;;;12.40;74.51;95265.25;6028653;23;20317;-83
2022/01/04 08:08:44;;;;;;;1.13;0.88;;;;;;;12.49;73.83;95258.22;5994646;23;20366;-82
2022/01/04 08:11:09;;;;;;;0.98;0.80;;;;;;;12.54;73.89;95239.81;6053653;23;20080;-82
2022/01/04 08:13:35;;;;;;;1.42;0.60;;;;;;;12.71;73.64;95256.56;5994860;23;20151;-83
2022/01/04 08:16:00;;;;;;;0.70;0.63;;;;;;;12.77;73.29;95247.53;6028977;23;20173;-82
2022/01/04 08:18:25;;;;;;;1.67;0.90;;;;;;;12.86;73.01;95250.91;6003751;23;20171;-81
2022/01/04 08:20:56;;;;;;;1.40;0.75;;;;;;;12.70;73.25;95240.13;6028491;23;20211;-80
2022/01/04 08:23:22;;;;;;;1.08;0.80;;;;;;;12.64;73.86;95232.75;6028365;23;20185;-82
2022/01/04 08:25:47;;;;;;;0.98;0.82;;;;;;;12.55;74.20;95241.34;5995258;23;20253;-82
2022/01/04 08:28:13;;;;;;;0.98;0.80;;;;;;;12.57;74.04;95224.59;6029102;23;20352;-82
2022/01/04 08:30:38;;;;;;;2.17;1.33;;;;;;;12.54;74.65;95229.38;6028910;23;20256;-83
2022/01/04 08:33:04;;;;;;;1.55;0.70;;;;;;;12.61;74.01;95233.34;5994187;23;20499;-81
2022/01/04 08:35:29;;;;;;;1.77;0.70;;;;;;;12.66;74.17;95235.81;6027777;23;20338;-81
2022/01/04 08:37:55;;;;;;;2.97;0.82;;;;;;;12.92;73.25;95223.56;6027240;23;20166;-82
2022/01/04 08:40:20;;;;;;;2.08;1.00;;;;;;;12.96;73.07;95220.34;5994782;23;20724;-83
2022/01/04 08:42:46;;;;;;;1.13;0.90;;;;;;;12.77;73.49;95205.75;6028383;23;20136;-82
2022/01/04 08:45:11;;;;;;;1.05;0.80;;;;;;;12.70;74.15;95218.50;6028247;23;20198;-82
2022/01/04 08:47:37;;;;;;;2.17;1.33;;;;;;;12.60;74.18;95218.78;6053351;23;20585;-82
2022/01/04 08:50:05;;;;;;;1.27;0.90;;;;;;;12.46;74.74;95227.50;6028766;23;20582;-83
2022/01/04 08:52:31;;;;;;;1.40;1.00;;;;;;;12.77;73.53;95210.22;6003487;23;20800;-81
2022/01/04 08:54:56;;;;;;;2.17;1.02;;;;;;;12.68;73.93;95220.63;5993581;23;20281;-78
2022/01/04 08:57:23;;;;;;;1.98;1.20;;;;;;;12.86;73.66;95214.34;6027913;23;20526;-84
2022/01/04 08:59:49;;;;;;;1.50;1.20;;;;;;;12.91;73.36;95216.81;6052262;23;20705;-83
2022/01/04 09:02:14;;;;;;;2.33;1.40;;;;;;;12.67;74.25;95203.44;6027931;23;20170;-81
2022/01/04 09:04:40;;;;;;;2.30;1.40;;;;;;;12.92;73.18;95201.91;5994855;23;20167;-82
2022/01/04 09:07:05;;;;;;;1.48;1.30;;;;;;;13.13;72.60;95201.28;6028382;23;20169;-83
2022/01/04 09:09:31;;;;;;;2.80;1.60;;;;;;;12.83;73.48;95201.88;5994166;23;20260;-82
2022/01/04 09:11:56;;;;;;;2.58;1.30;;;;;;;12.77;73.94;95204.97;6003952;23;20641;-81
2022/01/04 09:14:26;;;;;;;1.60;1.23;;;;;;;12.82;73.78;95192.53;6028151;23;20249;-82
2022/01/04 09:19:36;;;;;;;1.67;1.20;;;;;;;12.84;73.56;95192.22;5997776;23;20210;-85
2022/01/04 09:22:02;;;;;;;2.97;1.58;;;;;;;13.03;72.71;95190.06;6027657;23;20229;-84
2022/01/04 09:24:28;;;;;;;2.20;1.67;;;;;;;12.46;74.69;95180.53;6018297;23;20147;-80
2022/01/04 09:26:54;;;;;;;1.55;1.25;;;;;;;12.70;74.02;95184.53;5994605;23;20271;-84
2022/01/04 09:29:19;;;;;;;3.58;1.48;;;;;;;12.84;73.72;95195.59;6028106;23;20504;-82
2022/01/04 09:31:50;;;;;;;3.50;1.60;;;;;;;12.65;74.40;95213.41;6018513;23;20273;-82
2022/01/04 09:34:16;;;;;;;2.60;2.10;;;;;;;12.78;73.76;95209.13;6028632;23;20238;-81
2022/01/04 09:36:41;;;;;;;2.35;1.70;;;;;;;12.82;73.60;95202.22;6029613;23;20156;-83
2022/01/04 09:39:10;;;;;;;1.73;1.38;;;;;;;12.82;73.87;95208.22;6029636;23;20167;-80
2022/01/04 09:41:35;;;;;;;3.67;1.30;;;;;;;12.81;73.74;95206.66;6005501;23;20261;-83
2022/01/04 09:44:02;;;;;;;3.50;1.40;;;;;;;12.63;74.51;95197.25;6029766;23;20269;-82
2022/01/04 09:46:29;;;;;;;2.65;1.45;;;;;;;12.65;74.67;95208.19;6029194;23;20603;-80
2022/01/04 09:48:54;;;;;;;3.00;1.58;;;;;;;12.61;74.74;95191.59;6030533;23;20663;-81
2022/01/04 09:51:20;;;;;;;3.13;1.92;;;;;;;12.60;74.90;95196.06;6029135;23;20268;-80
2022/01/04 09:53:45;;;;;;;1.80;1.60;;;;;;;12.59;74.77;95196.34;5995130;23;20545;-81
2022/01/04 09:56:11;;;;;;;3.58;1.88;;;;;;;12.86;73.66;95210.97;6020592;23;20182;-80
2022/01/04 09:58:37;;;;;;;1.55;1.30;;;;;;;12.54;74.90;95198.03;5995774;23;20229;-83
2022/01/04 10:01:03;;;;;;;2.38;1.20;;;;;;;12.79;74.57;95202.81;6029162;23;20559;-80
2022/01/04 10:03:30;;;;;;;3.40;1.55;;;;;;;12.97;73.71;95208.81;5995365;23;20264;-83
2022/01/04 10:06:09;;;;;;;2.80;1.58;;;;;;;12.80;73.97;95206.97;6029560;23;20186;-83
2022/01/04 10:08:52;;;;;;;2.53;1.40;;;;;;;12.78;74.24;95202.03;5996710;23;20175;-80
2022/01/04 10:11:28;;;;;;;2.45;1.40;;;;;;;12.80;73.69;95205.13;5995644;23;20185;-83
2022/01/04 10:13:54;;;;;;;3.28;1.40;;;;;;;12.81;74.12;95196.22;6053539;23;20083;-83
2022/01/04 10:16:19;;;;;;;3.20;1.23;;;;;;;12.84;74.20;95203.44;6029592;23;20377;-82
2022/01/04 10:18:48;;;;;;;1.98;1.15;;;;;;;12.89;73.80;95207.75;5995920;23;20201;-81
2022/01/04 10:21:16;;;;;;;3.08;1.50;;;;;;;12.81;74.08;95206.66;6029589;23;20302;-82
2022/01/04 10:23:45;;;;;;;3.13;1.60;;;;;;;12.60;74.68;95210.94;6029934;23;20135;-84
2022/01/04 10:26:11;;;;;;;1.23;1.13;;;;;;;13.03;73.61;95215.44;6054594;23;20187;-82
2022/01/04 10:28:39;;;;;;;2.60;1.75;;;;;;;13.05;73.13;95221.13;5996047;23;20259;-83
2022/01/04 10:31:23;;;;;;;1.45;1.05;;;;;;;12.72;74.40;95229.41;6029429;23;20194;-83
2022/01/04 10:33:53;;;;;;;2.65;1.48;;;;;;;12.91;73.99;95239.53;6029445;23;20253;-82
2022/01/04 10:36:21;;;;;;;1.50;1.13;;;;;;;13.13;73.36;95227.44;5997131;23;20143;-84
2022/01/04 10:38:47;;;;;;;1.65;1.17;;;;;;;13.12;73.23;95242.31;6030932;23;20252;-82
2022/01/04 10:41:16;;;;;;;2.65;1.42;;;;;;;12.97;73.23;95246.16;6030677;23;20249;-85
2022/01/04 10:43:44;;;;;;;1.60;1.10;;;;;;;13.16;72.94;95256.31;6054241;23;20680;-83
2022/01/04 10:46:14;;;;;;;2.53;1.58;;;;;;;13.34;72.25;95275.38;5997019;23;20190;-82
2022/01/04 10:48:43;;;;;;;1.25;0.20;;;;;;;12.09;68.84;95276.50;6030088;23;20653;-81
2022/01/04 10:51:10;;;;;;;0.47;0.43;;;;;;;12.02;69.35;95283.22;5996283;23;20189;-82
2022/01/04 10:53:57;;;;;;;0.22;0.15;;;;;;;11.76;67.86;95302.06;6025891;23;20263;-80
2022/01/04 10:56:24;;;;;;;1.25;0.65;;;;;;;11.23;68.97;95293.09;6005014;23;20149;-81
2022/01/04 10:58:51;;;;;;;1.52;0.80;;;;;;;11.17;69.31;95309.91;5995637;23;20222;-82
2022/01/04 11:01:20;;;;;;;2.05;1.20;;;;;;;10.98;70.09;95312.66;5971549;23;20176;-82
2022/01/04 11:03:59;;;;;;;0.82;0.52;;;;;;;10.64;70.67;95311.22;6004778;23;20342;-82
2022/01/04 11:06:28;;;;;;;2.42;1.38;;;;;;;10.68;70.27;95314.81;5979566;23;20279;-81
2022/01/04 11:08:54;;;;;;;3.35;1.30;;;;;;;10.37;70.30;95325.03;6004546;23;20143;-81
2022/01/04 11:11:20;;;;;;;2.33;1.45;;;;;;;10.38;70.77;95313.56;5993155;23;20165;-82
2022/01/04 11:13:48;;;;;;;2.30;1.20;;;;;;;10.19;71.08;95324.78;6003413;23;20361;-83
2022/01/04 11:16:18;;;;;;;1.80;1.08;;;;;;;10.00;71.40;95316.28;5980603;23;20190;-82
2022/01/04 11:18:46;;;;;;;2.88;1.27;;;;;;;10.09;71.80;95327.53;5947456;23;20195;-80
2022/01/04 11:21:13;;;;;;;2.88;1.48;;;;;;;9.80;71.45;95338.94;5971269;23;20195;-80
2022/01/04 11:23:39;;;;;;;3.90;1.20;;;;;;;9.99;72.23;95338.13;6004061;23;20179;-82
2022/01/04 11:26:05;;;;;;;2.17;1.33;;;;;;;9.85;71.50;95341.47;5971017;23;20140;-82
2022/01/04 11:28:30;;;;;;;3.28;1.58;;;;;;;10.10;71.14;95360.31;5969387;23;20176;-82
2022/01/04 11:31:29;;;;;;;3.35;2.00;;;;;;;9.74;71.75;95368.66;5947129;23;20235;-82
2022/01/04 11:34:13;;;;;;;2.47;1.58;;;;;;;9.79;71.69;95378.22;6029748;23;20252;-82
2022/01/04 11:36:49;;;;;;;2.80;1.10;;;;;;;9.37;72.70;95365.81;5993981;23;20169;-82
2022/01/04 11:39:39;;;;;;;2.17;1.10;;;;;;;9.54;71.85;95369.72;5970825;23;20148;-81
2022/01/04 11:42:36;;;;;;;1.98;1.13;;;;;;;9.23;72.35;95374.56;6003596;23;20187;-79